Time;durP1;ratioP1;P1;durP2;ratioP2;P2;SDS_P1;SDS_P2;PMS_P1;PMS_P2;Temp;Humidity;BMP_temperature;BMP_pressure;BME280_temperature;BME280_humidity;BME280_pressure;Samples;Min_cycle;Max_cycle;Signal;HPM_P1;HPM_P2
2021/07/27 00:00:55;;;;;;;24.23;21.90;;;17.90;99.90;;;;;;5076407;28;20539;-64
2021/07/27 00:03:20;;;;;;;24.42;21.90;;;17.90;99.90;;;;;;5066006;28;20037;-64
2021/07/27 00:05:47;;;;;;;22.23;19.90;;;17.90;99.90;;;;;;5051977;28;20037;-64
2021/07/27 00:08:13;;;;;;;23.27;20.83;;;18.00;99.90;;;;;;5044893;28;20074;-64
2021/07/27 00:10:38;;;;;;;24.63;22.23;;;18.00;99.90;;;;;;5065800;28;20474;-64
2021/07/27 00:13:05;;;;;;;25.52;22.83;;;18.00;99.90;;;;;;5076860;28;20123;-64
2021/07/27 00:15:32;;;;;;;24.23;21.83;;;18.10;99.90;;;;;;5062474;28;20116;-64
2021/07/27 00:17:57;;;;;;;24.90;22.42;;;18.10;99.90;;;;;;5065288;28;20102;-64
2021/07/27 00:20:23;;;;;;;25.67;23.17;;;18.20;99.90;;;;;;5073893;28;20040;-64
2021/07/27 00:22:49;;;;;;;26.63;24.02;;;18.20;99.90;;;;;;5076380;28;20036;-64
2021/07/27 00:25:15;;;;;;;29.08;25.77;;;18.20;99.90;;;;;;5060513;28;20044;-64
2021/07/27 00:27:41;;;;;;;26.83;23.95;;;18.20;99.90;;;;;;5064556;28;20045;-65
2021/07/27 00:30:08;;;;;;;26.83;24.13;;;18.20;99.90;;;;;;5073315;28;20036;-64
2021/07/27 00:32:41;;;;;;;32.38;26.55;;;18.30;99.90;;;;;;5054921;28;20134;-64
2021/07/27 00:35:08;;;;;;;29.63;26.52;;;18.30;99.90;;;;;;5053966;28;20047;-64
2021/07/27 00:37:34;;;;;;;29.05;26.05;;;18.30;99.90;;;;;;5053427;28;20045;-64
2021/07/27 00:40:03;;;;;;;30.55;27.45;;;18.30;99.90;;;;;;5066159;28;20093;-65
2021/07/27 00:42:32;;;;;;;29.45;26.42;;;18.30;99.90;;;;;;5073350;28;20389;-64
2021/07/27 00:44:58;;;;;;;30.00;26.50;;;18.30;99.90;;;;;;5065659;28;20044;-64
2021/07/27 00:47:24;;;;;;;28.80;25.90;;;18.30;99.90;;;;;;5054990;28;20548;-65
2021/07/27 00:49:52;;;;;;;32.30;28.85;;;18.40;99.90;;;;;;5060022;28;20486;-64
2021/07/27 00:52:18;;;;;;;32.63;29.27;;;18.40;99.90;;;;;;5052857;28;20475;-64
2021/07/27 00:54:45;;;;;;;34.17;30.50;;;18.40;99.90;;;;;;5053924;28;20059;-64
2021/07/27 00:57:10;;;;;;;36.63;32.72;;;18.40;99.90;;;;;;5035594;28;20037;-64
2021/07/27 00:59:36;;;;;;;36.03;32.17;;;18.40;99.90;;;;;;5060014;28;20405;-64
2021/07/27 01:02:02;;;;;;;40.30;35.45;;;18.30;99.90;;;;;;5070778;28;20094;-64
2021/07/27 01:04:28;;;;;;;39.05;34.85;;;18.30;99.90;;;;;;5053609;28;20045;-64
2021/07/27 01:06:53;;;;;;;41.80;36.38;;;18.30;99.90;;;;;;5057298;28;20547;-64
2021/07/27 01:09:19;;;;;;;45.58;38.10;;;18.30;99.90;;;;;;5056299;28;20445;-64
2021/07/27 01:11:45;;;;;;;46.65;39.25;;;18.30;99.90;;;;;;5053330;28;20469;-64
2021/07/27 01:14:11;;;;;;;44.55;39.08;;;18.30;99.90;;;;;;5060181;28;20115;-64
2021/07/27 01:16:37;;;;;;;49.55;41.33;;;18.30;99.90;;;;;;5071555;28;20075;-64
2021/07/27 01:43:18;;;;;;;50.65;40.55;;;18.20;99.90;;;;;;5063184;28;20535;-64
2021/07/27 01:45:44;;;;;;;51.28;42.22;;;18.30;99.90;;;;;;5072755;28;20048;-64
2021/07/27 01:48:09;;;;;;;48.05;41.42;;;18.20;99.90;;;;;;5062072;28;20063;-64
2021/07/27 01:50:35;;;;;;;50.17;41.38;;;18.20;99.90;;;;;;5051921;28;20045;-64
2021/07/27 01:53:05;;;;;;;52.03;41.13;;;18.20;99.90;;;;;;5061788;28;20048;-64
2021/07/27 01:55:34;;;;;;;52.72;42.65;;;18.20;99.90;;;;;;5052186;28;20060;-64
2021/07/27 01:58:04;;;;;;;48.78;42.03;;;18.20;99.90;;;;;;5059315;28;20094;-64
2021/07/27 02:00:32;;;;;;;52.78;41.45;;;18.20;99.90;;;;;;5054319;28;20040;-64
2021/07/27 02:02:57;;;;;;;51.50;42.70;;;18.20;99.90;;;;;;5063944;28;20053;-64
2021/07/27 02:05:23;;;;;;;52.40;41.42;;;18.20;99.90;;;;;;5049597;28;20045;-64
2021/07/27 02:07:55;;;;;;;50.72;43.00;;;18.30;99.90;;;;;;5052979;28;20090;-64
2021/07/27 02:10:22;;;;;;;51.63;42.20;;;18.30;99.90;;;;;;5051889;28;20485;-64
2021/07/27 02:13:04;;;;;;;50.30;40.97;;;18.40;99.90;;;;;;5052048;28;20561;-64
2021/07/27 02:15:45;;;;;;;52.80;43.22;;;18.40;99.90;;;;;;5051746;28;20041;-64
2021/07/27 02:18:10;;;;;;;59.25;43.85;;;18.40;99.90;;;;;;5050754;28;20502;-64
2021/07/27 02:20:37;;;;;;;53.45;43.78;;;18.40;99.90;;;;;;5057397;28;20029;-64
2021/07/27 02:23:04;;;;;;;53.03;41.45;;;18.50;99.90;;;;;;5068850;28;20470;-64
2021/07/27 02:25:30;;;;;;;55.30;43.38;;;18.40;99.90;;;;;;5053215;28;20037;-64
2021/07/27 02:27:59;;;;;;;52.08;38.95;;;18.50;99.90;;;;;;5051865;28;20139;-65
2021/07/27 02:30:26;;;;;;;48.50;37.33;;;18.50;99.90;;;;;;5051618;28;20040;-65
2021/07/27 02:32:52;;;;;;;42.05;33.55;;;18.50;99.90;;;;;;5053594;28;20044;-65
2021/07/27 02:35:27;;;;;;;47.40;36.78;;;18.50;99.90;;;;;;5051756;28;20488;-65
2021/07/27 02:37:53;;;;;;;40.10;31.65;;;18.50;99.90;;;;;;5051381;28;20394;-65
2021/07/27 02:40:18;;;;;;;34.85;28.48;;;18.50;99.90;;;;;;5052390;28;20033;-65
2021/07/27 02:42:44;;;;;;;33.15;27.88;;;18.60;99.90;;;;;;5057473;28;20068;-65
2021/07/27 02:45:11;;;;;;;32.80;26.65;;;18.50;99.90;;;;;;5046211;28;20068;-65
2021/07/27 02:47:41;;;;;;;33.90;28.83;;;18.50;99.90;;;;;;5054810;28;20040;-66
2021/07/27 02:50:08;;;;;;;43.53;28.42;;;18.50;99.90;;;;;;5051070;28;20041;-66
2021/07/27 02:52:35;;;;;;;33.20;26.95;;;18.50;99.90;;;;;;5061275;28;20048;-66
2021/07/27 02:55:01;;;;;;;32.80;26.83;;;18.50;99.90;;;;;;5071045;28;20089;-66
2021/07/27 02:57:27;;;;;;;36.58;28.35;;;18.40;99.90;;;;;;5070333;28;20437;-66
2021/07/27 02:59:56;;;;;;;32.92;26.20;;;18.50;99.90;;;;;;5071458;28;20045;-66
2021/07/27 03:02:22;;;;;;;32.53;25.58;;;18.40;99.90;;;;;;5054860;28;20061;-66
2021/07/27 03:04:48;;;;;;;26.00;21.77;;;18.40;99.90;;;;;;5031113;28;20091;-66
2021/07/27 03:07:19;;;;;;;26.45;23.10;;;18.50;99.90;;;;;;5065023;28;20048;-66
2021/07/27 03:12:28;;;;;;;25.15;22.42;;;18.30;99.90;;;;;;5051286;28;20044;-65
2021/07/27 03:15:02;;;;;;;26.42;21.42;;;18.30;99.90;;;;;;5051122;28;20041;-66
2021/07/27 03:17:28;;;;;;;26.52;22.38;;;18.30;99.90;;;;;;5066764;28;20052;-66
2021/07/27 03:19:53;;;;;;;25.65;21.52;;;18.30;99.90;;;;;;5051657;28;20052;-65
2021/07/27 03:22:23;;;;;;;26.88;21.50;;;18.30;99.90;;;;;;5059778;28;20136;-66
2021/07/27 03:24:48;;;;;;;26.73;21.65;;;18.30;99.90;;;;;;5063239;28;20047;-65
2021/07/27 03:27:17;;;;;;;28.80;23.45;;;18.30;99.90;;;;;;5071145;28;20041;-66
2021/07/27 03:29:42;;;;;;;27.08;22.38;;;18.30;99.90;;;;;;5059420;28;20047;-65
2021/07/27 03:32:08;;;;;;;26.55;22.73;;;18.30;99.90;;;;;;5063556;28;20587;-66
2021/07/27 03:34:33;;;;;;;30.83;23.67;;;18.30;99.90;;;;;;5061274;28;20044;-66
2021/07/27 03:36:59;;;;;;;26.58;23.05;;;18.30;99.90;;;;;;5055956;28;20098;-66
2021/07/27 03:39:25;;;;;;;30.55;23.20;;;18.20;99.90;;;;;;5066755;28;20521;-65
2021/07/27 03:41:51;;;;;;;27.40;22.95;;;18.20;99.90;;;;;;5060265;28;20463;-66
2021/07/27 03:44:17;;;;;;;26.50;23.05;;;18.20;99.90;;;;;;5056400;28;20040;-66
2021/07/27 03:46:52;;;;;;;26.05;23.15;;;18.20;99.90;;;;;;5061289;28;20048;-66
2021/07/27 03:49:17;;;;;;;27.75;23.15;;;18.20;99.90;;;;;;5033112;28;20040;-66
2021/07/27 03:51:43;;;;;;;28.45;23.90;;;18.20;99.90;;;;;;5036751;28;20057;-66
2021/07/27 03:54:08;;;;;;;27.20;23.15;;;18.20;99.90;;;;;;5062479;28;20043;-66
2021/07/27 03:56:34;;;;;;;27.08;22.58;;;18.20;99.90;;;;;;5057857;28;20037;-66
2021/07/27 03:59:03;;;;;;;30.00;24.85;;;18.20;99.90;;;;;;5051174;28;20103;-66
2021/07/27 04:01:29;;;;;;;30.55;25.73;;;18.20;99.90;;;;;;5056623;28;20207;-66
2021/07/27 04:03:55;;;;;;;27.10;23.38;;;18.30;99.90;;;;;;5054122;28;20053;-66
2021/07/27 04:06:20;;;;;;;23.52;21.02;;;18.30;99.90;;;;;;5030309;28;20060;-66
2021/07/27 04:08:46;;;;;;;29.73;23.35;;;18.40;99.90;;;;;;5045564;28;20041;-66
2021/07/27 04:11:13;;;;;;;30.52;26.15;;;18.30;99.90;;;;;;5066817;28;20041;-66
2021/07/27 04:13:39;;;;;;;27.10;23.38;;;18.40;99.90;;;;;;5060165;28;20478;-66
2021/07/27 04:16:05;;;;;;;30.45;24.60;;;18.40;99.90;;;;;;5054305;28;20072;-66
2021/07/27 04:18:32;;;;;;;42.08;25.65;;;18.40;99.90;;;;;;5052366;28;20607;-66
2021/07/27 04:20:59;;;;;;;31.48;24.60;;;18.40;99.90;;;;;;5057109;28;20064;-66
2021/07/27 04:23:25;;;;;;;26.25;23.13;;;18.40;99.90;;;;;;5054726;28;20076;-66
2021/07/27 04:25:50;;;;;;;26.75;21.90;;;18.40;99.90;;;;;;5073998;28;20072;-66
2021/07/27 04:28:16;;;;;;;26.48;23.65;;;18.40;99.90;;;;;;5054456;28;20040;-66
2021/07/27 04:30:42;;;;;;;26.63;22.63;;;18.30;99.90;;;;;;5057180;28;20032;-66
2021/07/27 04:33:08;;;;;;;27.00;23.45;;;18.30;99.90;;;;;;5073453;28;20075;-66
2021/07/27 04:35:33;;;;;;;24.85;21.42;;;18.20;99.90;;;;;;5055715;28;20037;-66
2021/07/27 04:37:59;;;;;;;25.25;21.33;;;18.20;99.90;;;;;;5065522;28;20393;-65
2021/07/27 04:40:24;;;;;;;23.90;21.33;;;18.20;99.90;;;;;;5073624;28;20045;-65
2021/07/27 04:42:50;;;;;;;24.63;21.95;;;18.20;99.90;;;;;;5071498;28;20037;-65
2021/07/27 04:45:16;;;;;;;24.98;21.70;;;18.20;99.90;;;;;;5071261;28;20032;-66
2021/07/27 04:47:42;;;;;;;26.35;23.00;;;18.20;99.90;;;;;;5058851;28;20584;-66
2021/07/27 04:50:10;;;;;;;28.38;22.00;;;18.20;99.90;;;;;;5053493;28;20098;-66
2021/07/27 04:52:37;;;;;;;25.15;22.17;;;18.30;99.90;;;;;;5065277;28;20047;-66
2021/07/27 04:55:04;;;;;;;24.17;20.15;;;18.30;99.90;;;;;;5063938;28;20485;-66
2021/07/27 04:57:32;;;;;;;23.52;20.88;;;18.30;99.90;;;;;;5061859;28;20032;-66
2021/07/27 04:59:58;;;;;;;23.17;20.67;;;18.20;99.90;;;;;;5053666;28;20041;-66
2021/07/27 05:02:24;;;;;;;25.33;20.27;;;18.20;99.90;;;;;;5052788;28;20406;-66
2021/07/27 05:04:49;;;;;;;24.88;21.67;;;18.20;99.90;;;;;;5054117;28;20128;-65
2021/07/27 05:07:15;;;;;;;23.50;20.50;;;18.20;99.90;;;;;;5033161;28;20534;-65
2021/07/27 05:09:41;;;;;;;23.33;20.85;;;18.20;99.90;;;;;;5055123;28;20079;-66
2021/07/27 05:12:06;;;;;;;24.83;18.83;;;18.20;99.90;;;;;;5061240;28;20041;-66
2021/07/27 05:14:32;;;;;;;22.90;20.45;;;18.30;99.90;;;;;;5053590;28;20044;-66
2021/07/27 05:17:11;;;;;;;25.63;21.33;;;18.20;99.90;;;;;;5052913;28;20075;-66
2021/07/27 05:19:50;;;;;;;23.88;21.33;;;18.30;99.90;;;;;;5054003;28;20037;-66
2021/07/27 05:22:20;;;;;;;;;;;18.40;99.90;;;;;;5064969;28;20136;-66
2021/07/27 05:24:47;;;;;;;23.40;20.90;;;18.50;99.90;;;;;;5069854;28;19948;-66
2021/07/27 05:27:12;;;;;;;23.77;21.00;;;18.50;99.90;;;;;;5068673;28;20124;-66
2021/07/27 05:29:38;;;;;;;22.92;20.23;;;18.70;99.90;;;;;;5061724;28;20111;-66
2021/07/27 05:32:04;;;;;;;23.73;21.15;;;18.90;99.90;;;;;;5063561;28;20052;-66
2021/07/27 05:34:30;;;;;;;21.92;19.65;;;19.20;99.90;;;;;;5059158;28;20029;-66
2021/07/27 05:36:56;;;;;;;23.65;21.15;;;19.40;99.90;;;;;;5052345;28;20037;-66
2021/07/27 05:39:21;;;;;;;21.13;18.90;;;19.60;99.90;;;;;;5060826;28;20478;-66
2021/07/27 05:41:47;;;;;;;22.13;18.90;;;19.80;99.90;;;;;;5062913;28;20043;-66
2021/07/27 05:44:13;;;;;;;22.88;20.48;;;19.80;99.90;;;;;;5068876;28;20067;-66
2021/07/27 05:46:39;;;;;;;22.08;19.30;;;19.80;99.90;;;;;;5045222;28;20562;-66
2021/07/27 05:49:08;;;;;;;22.70;20.42;;;19.70;99.90;;;;;;5050756;28;20036;-66
2021/07/27 05:51:34;;;;;;;22.75;20.45;;;19.70;99.90;;;;;;5042328;28;20045;-66
2021/07/27 05:53:59;;;;;;;22.25;19.85;;;19.70;99.90;;;;;;5040722;28;20044;-66
2021/07/27 05:56:25;;;;;;;23.67;21.05;;;19.60;99.90;;;;;;5034640;28;20599;-67
2021/07/27 05:58:51;;;;;;;24.45;21.98;;;19.60;99.90;;;;;;5050641;28;20037;-66
2021/07/27 06:01:18;;;;;;;23.25;20.95;;;19.60;99.90;;;;;;5051247;28;20044;-66
2021/07/27 06:03:43;;;;;;;24.35;21.77;;;19.70;99.90;;;;;;5037238;28;20045;-66
2021/07/27 06:06:09;;;;;;;25.52;22.83;;;19.80;99.90;;;;;;5047986;28;20124;-66
2021/07/27 06:08:35;;;;;;;27.05;23.02;;;20.10;99.90;;;;;;5040544;28;20060;-67
2021/07/27 06:11:04;;;;;;;27.60;23.83;;;20.30;99.90;;;;;;5052604;28;20523;-66
2021/07/27 06:13:29;;;;;;;27.85;24.63;;;20.30;99.90;;;;;;5034524;28;20043;-66
2021/07/27 06:15:55;;;;;;;28.40;25.30;;;20.10;99.90;;;;;;5070875;28;20036;-66
2021/07/27 06:18:21;;;;;;;30.63;26.00;;;20.00;99.90;;;;;;5071035;28;20541;-66
2021/07/27 06:20:46;;;;;;;29.15;26.00;;;19.90;99.90;;;;;;5069465;28;20463;-66
2021/07/27 06:23:12;;;;;;;31.27;26.10;;;20.10;99.90;;;;;;5071470;28;20090;-67
2021/07/27 06:25:38;;;;;;;30.80;25.67;;;20.60;99.90;;;;;;5070258;28;20036;-67
2021/07/27 06:28:05;;;;;;;34.63;27.20;;;21.00;99.90;;;;;;5070225;28;20076;-67
2021/07/27 06:30:30;;;;;;;31.73;28.25;;;21.20;99.90;;;;;;5066790;28;20044;-66
2021/07/27 06:32:57;;;;;;;38.05;29.10;;;21.20;99.90;;;;;;5054526;28;20040;-67
2021/07/27 06:35:23;;;;;;;32.15;28.33;;;21.20;99.90;;;;;;5061032;28;20097;-66
2021/07/27 06:37:48;;;;;;;37.42;31.50;;;21.20;99.90;;;;;;5070562;28;20040;-67
2021/07/27 06:40:14;;;;;;;34.28;29.38;;;21.20;99.90;;;;;;5037943;28;20034;-67
2021/07/27 06:42:40;;;;;;;38.47;32.17;;;21.20;99.90;;;;;;5040859;28;20064;-66
2021/07/27 06:45:06;;;;;;;37.42;31.63;;;21.10;99.90;;;;;;5038555;28;20036;-66
2021/07/27 06:47:31;;;;;;;37.97;31.35;;;20.90;99.90;;;;;;5050032;28;20048;-66
2021/07/27 06:49:57;;;;;;;36.20;29.20;;;20.80;99.90;;;;;;5033123;28;20036;-66
2021/07/27 06:52:23;;;;;;;34.70;29.88;;;20.90;99.90;;;;;;5050204;28;20045;-66
2021/07/27 06:54:48;;;;;;;36.65;29.58;;;20.90;99.90;;;;;;5051638;28;20033;-66
2021/07/27 06:57:16;;;;;;;39.83;31.58;;;21.10;99.90;;;;;;5032276;28;20040;-67
2021/07/27 06:59:41;;;;;;;37.85;29.73;;;21.20;99.90;;;;;;5051493;28;20413;-67
2021/07/27 07:02:07;;;;;;;40.97;31.63;;;21.20;99.90;;;;;;5050026;28;20071;-67
2021/07/27 07:04:33;;;;;;;40.70;32.60;;;21.00;99.90;;;;;;5047973;28;20099;-67
2021/07/27 07:06:59;;;;;;;40.80;33.45;;;20.90;99.90;;;;;;5031743;28;20488;-66
2021/07/27 07:09:24;;;;;;;41.05;34.75;;;21.00;99.90;;;;;;5050153;28;20055;-67
2021/07/27 07:11:50;;;;;;;45.08;36.33;;;21.00;99.90;;;;;;5046461;28;20544;-67
2021/07/27 07:14:17;;;;;;;41.47;33.28;;;21.10;99.90;;;;;;5047171;28;20429;-67
2021/07/27 07:16:42;;;;;;;43.75;34.20;;;21.30;99.90;;;;;;5053793;28;20049;-67
2021/07/27 07:19:08;;;;;;;44.83;36.22;;;21.70;99.90;;;;;;5049677;28;20044;-67
2021/07/27 07:21:34;;;;;;;41.25;32.65;;;22.10;99.90;;;;;;5057591;28;20041;-67
2021/07/27 07:23:59;;;;;;;44.35;37.20;;;22.60;99.90;;;;;;5053917;28;20033;-67
2021/07/27 07:26:25;;;;;;;36.72;31.85;;;22.70;99.90;;;;;;5050579;28;20115;-67
2021/07/27 07:28:51;;;;;;;40.30;32.60;;;23.20;99.90;;;;;;5059479;28;20445;-67
2021/07/27 07:31:16;;;;;;;43.63;35.95;;;24.00;99.90;;;;;;5050494;28;20044;-67
2021/07/27 07:33:43;;;;;;;45.72;36.25;;;24.50;99.90;;;;;;5045766;28;20498;-67
2021/07/27 07:36:13;;;;;;;43.30;35.50;;;24.70;99.80;;;;;;5069789;28;20044;-66
2021/07/27 07:38:42;;;;;;;41.28;35.35;;;24.40;99.70;;;;;;5048370;28;20044;-66
2021/07/27 07:41:09;;;;;;;43.40;35.47;;;24.10;99.90;;;;;;5062686;28;20519;-66
2021/07/27 07:43:36;;;;;;;42.05;35.53;;;24.30;99.90;;;;;;5042859;28;20045;-67
2021/07/27 07:46:01;;;;;;;43.50;36.20;;;24.00;99.90;;;;;;5048947;28;20040;-67
2021/07/27 07:48:27;;;;;;;40.35;32.85;;;23.70;99.90;;;;;;5053496;28;20045;-67
2021/07/27 07:50:53;;;;;;;40.53;35.03;;;24.00;99.90;;;;;;5057065;28;20033;-67
2021/07/27 07:53:18;;;;;;;40.47;34.50;;;24.10;99.90;;;;;;5063735;28;20052;-67
2021/07/27 07:55:44;;;;;;;37.03;31.92;;;24.00;99.90;;;;;;5054049;28;20041;-67
2021/07/27 07:58:10;;;;;;;35.08;30.83;;;24.00;99.90;;;;;;5062927;28;20043;-67
2021/07/27 08:01:10;;;;;;;38.55;32.58;;;24.20;99.40;;;;;;5095252;22;20340;-68
2021/07/27 08:03:36;;;;;;;35.80;31.95;;;24.30;99.10;;;;;;5067363;28;20455;-69
2021/07/27 08:11:50;;;;;;;34.03;30.45;;;25.20;97.10;;;;;;5094541;27;20389;-69
2021/07/27 08:14:16;;;;;;;33.97;29.75;;;24.60;97.80;;;;;;5088416;28;20040;-70
2021/07/27 08:16:42;;;;;;;33.10;29.52;;;24.50;98.20;;;;;;5088638;28;20118;-69
2021/07/27 08:19:07;;;;;;;33.95;30.33;;;24.30;98.50;;;;;;5087133;28;20454;-69
2021/07/27 08:21:33;;;;;;;33.67;28.38;;;24.20;97.70;;;;;;5087231;28;20048;-69
2021/07/27 08:23:58;;;;;;;29.80;26.75;;;24.30;98.80;;;;;;5088482;28;20037;-69
2021/07/27 08:26:24;;;;;;;30.83;27.52;;;24.40;99.10;;;;;;5087387;28;20134;-69
2021/07/27 08:28:50;;;;;;;27.65;24.73;;;24.30;98.30;;;;;;5087816;28;20037;-69
2021/07/27 08:31:16;;;;;;;30.10;26.98;;;24.40;98.80;;;;;;5088121;28;20119;-69
2021/07/27 08:33:42;;;;;;;32.30;28.42;;;24.40;98.60;;;;;;5087870;28;20127;-68
2021/07/27 08:36:08;;;;;;;32.78;28.50;;;24.50;98.20;;;;;;5085935;28;20071;-68
2021/07/27 08:38:35;;;;;;;31.52;28.20;;;24.40;97.50;;;;;;5087192;28;20051;-68
2021/07/27 08:41:02;;;;;;;31.60;28.13;;;24.40;98.10;;;;;;5082109;28;20029;-69
2021/07/27 08:43:28;;;;;;;30.25;26.23;;;24.50;97.90;;;;;;5081462;28;20112;-68
2021/07/27 08:45:54;;;;;;;31.27;28.08;;;24.60;98.20;;;;;;5088442;28;20124;-69
2021/07/27 08:48:24;;;;;;;29.58;26.40;;;24.70;98.10;;;;;;5080686;28;20090;-69
2021/07/27 08:50:50;;;;;;;32.53;29.17;;;24.80;98.10;;;;;;5096803;28;20041;-69
2021/07/27 08:53:16;;;;;;;31.20;28.10;;;24.80;97.60;;;;;;5081551;28;20041;-68
2021/07/27 08:55:41;;;;;;;34.28;30.27;;;24.80;98.40;;;;;;5083610;28;20044;-69
2021/07/27 08:58:07;;;;;;;34.75;31.23;;;24.60;97.60;;;;;;5070687;28;20036;-68
2021/07/27 09:00:33;;;;;;;35.60;31.85;;;24.30;98.10;;;;;;5072952;28;20040;-68
2021/07/27 09:03:09;;;;;;;36.97;29.20;;;24.00;98.60;;;;;;5085518;28;20096;-68
2021/07/27 09:05:35;;;;;;;33.53;29.83;;;24.10;98.90;;;;;;5085449;28;20040;-68
2021/07/27 09:08:07;;;;;;;32.58;29.27;;;24.20;99.00;;;;;;5082883;28;20067;-68
2021/07/27 09:10:34;;;;;;;35.17;31.38;;;24.30;99.10;;;;;;5083506;28;20048;-68
2021/07/27 09:13:02;;;;;;;36.38;32.47;;;24.50;98.70;;;;;;5087604;28;20036;-68
2021/07/27 09:15:37;;;;;;;36.30;32.53;;;24.50;98.50;;;;;;5087046;28;20489;-68
2021/07/27 09:18:05;;;;;;;32.35;28.70;;;24.30;98.20;;;;;;5087206;28;20050;-68
2021/07/27 09:20:31;;;;;;;32.88;29.45;;;24.40;99.10;;;;;;5084687;28;20044;-67
2021/07/27 09:22:58;;;;;;;31.73;28.42;;;24.50;99.60;;;;;;5070245;28;20090;-68
2021/07/27 09:25:28;;;;;;;32.90;29.42;;;24.60;98.80;;;;;;5062855;28;20126;-68
2021/07/27 09:28:08;;;;;;;28.27;25.30;;;24.70;98.00;;;;;;5065024;28;20060;-68
2021/07/27 09:30:35;;;;;;;30.85;27.75;;;25.00;97.80;;;;;;5064974;28;20048;-67
2021/07/27 09:33:00;;;;;;;30.33;27.25;;;25.10;97.80;;;;;;5054391;28;20041;-68
2021/07/27 09:35:28;;;;;;;29.17;26.35;;;25.20;96.90;;;;;;5063753;28;20166;-68
2021/07/27 09:38:24;;;;;;;29.08;26.15;;;25.40;97.00;;;;;;5073019;28;20562;-68
2021/07/27 09:41:07;;;;;;;26.40;23.83;;;25.20;95.70;;;;;;5073351;28;20047;-68
2021/07/27 09:43:33;;;;;;;28.45;25.70;;;25.40;96.20;;;;;;5066016;28;20127;-68
2021/07/27 09:46:00;;;;;;;29.05;26.15;;;25.40;95.80;;;;;;5068335;28;20070;-68
2021/07/27 09:48:27;;;;;;;28.60;25.65;;;25.50;96.20;;;;;;5070018;28;20428;-68
2021/07/27 09:50:55;;;;;;;27.10;24.42;;;25.40;96.30;;;;;;5061413;28;20040;-67
2021/07/27 09:53:23;;;;;;;28.40;25.60;;;25.40;96.30;;;;;;5064811;28;20059;-68
2021/07/27 09:55:50;;;;;;;29.98;26.95;;;25.50;95.70;;;;;;5066298;28;20044;-68
2021/07/27 09:58:16;;;;;;;29.27;26.35;;;25.30;95.60;;;;;;5072283;28;20029;-68
2021/07/27 10:00:57;;;;;;;28.20;25.25;;;25.20;96.10;;;;;;5069362;28;20522;-68
2021/07/27 10:03:25;;;;;;;30.17;26.77;;;25.10;95.60;;;;;;5064688;28;20067;-67
2021/07/27 10:06:02;;;;;;;29.42;26.38;;;25.00;95.90;;;;;;5072893;28;20708;-68
2021/07/27 10:08:34;;;;;;;26.42;23.80;;;25.00;96.60;;;;;;5063321;28;20037;-68
2021/07/27 10:11:13;;;;;;;26.83;23.83;;;25.10;96.50;;;;;;5067773;28;20045;-68
2021/07/27 10:13:45;;;;;;;27.27;24.67;;;25.00;95.00;;;;;;5072395;28;20085;-68
2021/07/27 10:16:25;;;;;;;27.52;24.90;;;25.00;96.00;;;;;;5072669;28;20436;-68
2021/07/27 10:18:51;;;;;;;28.58;25.67;;;25.00;96.60;;;;;;5072742;28;20044;-68
2021/07/27 10:21:27;;;;;;;26.25;23.73;;;25.00;96.00;;;;;;5072937;28;20048;-68
2021/07/27 10:23:58;;;;;;;29.10;26.30;;;25.10;96.40;;;;;;5072670;28;20033;-67
2021/07/27 10:26:33;;;;;;;23.13;20.45;;;24.90;96.00;;;;;;5072249;28;20501;-68
2021/07/27 10:28:59;;;;;;;20.98;18.90;;;25.30;97.10;;;;;;5072322;28;20040;-68
2021/07/27 10:31:36;;;;;;;21.38;19.35;;;25.50;95.90;;;;;;5072369;28;20087;-69
2021/07/27 10:34:09;;;;;;;18.50;16.67;;;25.50;94.40;;;;;;5065528;28;20163;-68
2021/07/27 10:36:43;;;;;;;17.67;16.08;;;25.40;95.40;;;;;;5069564;28;20045;-67
2021/07/27 10:39:10;;;;;;;18.40;16.15;;;25.40;95.90;;;;;;5066548;28;20068;-68
2021/07/27 10:41:45;;;;;;;17.80;15.98;;;25.30;95.90;;;;;;5072257;28;20045;-68
2021/07/27 10:44:16;;;;;;;17.95;16.30;;;25.40;95.30;;;;;;5061783;28;20090;-67
2021/07/27 10:46:47;;;;;;;16.15;14.70;;;25.40;95.70;;;;;;5071858;28;20044;-67
2021/07/27 10:49:15;;;;;;;;;;;25.40;95.90;;;;;;5072562;28;20513;-67
2021/07/27 10:51:42;;;;;;;17.45;15.27;;;25.50;96.10;;;;;;5069056;28;19923;-67
2021/07/27 10:54:09;;;;;;;17.55;15.80;;;25.50;95.90;;;;;;5071507;28;20422;-68
2021/07/27 10:56:36;;;;;;;15.60;14.20;;;25.60;94.40;;;;;;5071757;28;20087;-68
2021/07/27 10:59:02;;;;;;;16.38;14.85;;;25.80;95.20;;;;;;5070814;28;20059;-68
2021/07/27 11:01:31;;;;;;;16.95;15.30;;;26.00;95.70;;;;;;5070327;28;20692;-69
2021/07/27 11:04:13;;;;;;;15.38;13.88;;;26.20;94.20;;;;;;5067165;28;20044;-68
2021/07/27 11:06:39;;;;;;;16.88;15.07;;;26.30;94.30;;;;;;5061552;28;20033;-69
2021/07/27 11:09:05;;;;;;;14.40;13.10;;;26.30;94.30;;;;;;5066844;28;20047;-69
2021/07/27 11:11:42;;;;;;;16.35;14.60;;;26.20;94.40;;;;;;5065524;28;20072;-66
2021/07/27 11:14:07;;;;;;;16.98;15.30;;;26.40;94.30;;;;;;5050400;28;20036;-67
2021/07/27 11:16:42;;;;;;;16.88;15.30;;;26.20;93.80;;;;;;5049901;28;20445;-67
2021/07/27 11:19:26;;;;;;;16.42;14.82;;;26.30;94.20;;;;;;5064745;28;20668;-67
2021/07/27 11:21:54;;;;;;;16.63;15.05;;;26.40;94.00;;;;;;5069130;28;20059;-66
2021/07/27 11:24:21;;;;;;;17.95;16.15;;;26.60;94.10;;;;;;5071295;28;20131;-67
2021/07/27 11:26:51;;;;;;;18.20;16.30;;;26.30;93.70;;;;;;5077278;28;20037;-67
2021/07/27 11:29:18;;;;;;;17.40;15.70;;;26.30;93.40;;;;;;5074057;28;20032;-66
2021/07/27 11:31:51;;;;;;;15.38;13.98;;;26.20;94.10;;;;;;5071383;28;20044;-66
2021/07/27 11:34:30;;;;;;;17.23;15.52;;;26.10;94.30;;;;;;5071014;28;20048;-66
2021/07/27 11:36:58;;;;;;;18.33;16.42;;;26.00;94.40;;;;;;5061698;28;20057;-66
2021/07/27 11:39:24;;;;;;;17.38;15.77;;;26.00;94.50;;;;;;5068403;28;20477;-66
2021/07/27 11:42:02;;;;;;;17.20;15.50;;;26.20;94.30;;;;;;5071222;28;20051;-66
2021/07/27 11:44:29;;;;;;;16.42;14.77;;;26.20;93.70;;;;;;5072292;28;20032;-66
2021/07/27 11:46:55;;;;;;;15.95;14.45;;;26.00;94.50;;;;;;5082368;28;20037;-65
2021/07/27 11:49:21;;;;;;;15.77;14.32;;;26.00;93.80;;;;;;5071328;28;20082;-68
2021/07/27 11:51:47;;;;;;;15.50;14.00;;;26.20;94.20;;;;;;5070004;28;20105;-68
2021/07/27 11:54:24;;;;;;;15.57;14.20;;;26.40;94.40;;;;;;5070662;28;20049;-68
2021/07/27 11:56:49;;;;;;;17.52;15.93;;;26.40;94.10;;;;;;5071133;28;20032;-68
2021/07/27 11:59:24;;;;;;;17.60;15.90;;;26.50;93.60;;;;;;5071258;28;20033;-67
2021/07/27 12:01:50;;;;;;;17.00;15.50;;;26.40;93.20;;;;;;5068164;28;20050;-67
2021/07/27 12:04:16;;;;;;;17.10;15.30;;;26.50;93.60;;;;;;5071001;28;20040;-67
2021/07/27 12:06:53;;;;;;;16.55;14.95;;;26.50;93.80;;;;;;5069823;28;20100;-67
2021/07/27 12:09:21;;;;;;;17.65;15.85;;;26.50;92.10;;;;;;5070798;28;20086;-67
2021/07/27 12:11:47;;;;;;;17.48;15.68;;;26.60;92.90;;;;;;5069118;28;20088;-67
2021/07/27 12:14:12;;;;;;;18.13;16.40;;;26.70;93.10;;;;;;5070981;28;20075;-68
2021/07/27 12:16:38;;;;;;;15.63;14.20;;;26.70;91.60;;;;;;5062804;28;20386;-67
2021/07/27 12:19:04;;;;;;;17.48;15.80;;;26.80;92.70;;;;;;5050925;28;20041;-67
2021/07/27 12:21:30;;;;;;;18.25;16.55;;;26.70;92.00;;;;;;5063931;28;20094;-68
2021/07/27 12:23:56;;;;;;;18.17;16.38;;;26.50;92.10;;;;;;5069585;28;20075;-67
2021/07/27 12:26:21;;;;;;;17.83;16.02;;;26.40;92.70;;;;;;5070801;28;20039;-67
2021/07/27 12:28:47;;;;;;;18.42;16.63;;;26.40;93.30;;;;;;5069088;28;20115;-67
2021/07/27 12:31:12;;;;;;;17.00;15.43;;;26.40;93.20;;;;;;5070854;28;20109;-67
2021/07/27 12:33:39;;;;;;;18.40;15.95;;;26.30;93.60;;;;;;5070616;28;20051;-67
2021/07/27 12:36:05;;;;;;;18.30;16.60;;;26.20;92.90;;;;;;5070703;28;20029;-67
2021/07/27 12:38:32;;;;;;;17.85;15.80;;;26.20;92.60;;;;;;5070803;28;20101;-68
2021/07/27 12:40:58;;;;;;;19.73;17.88;;;26.40;93.50;;;;;;5070712;28;20074;-67
2021/07/27 12:43:24;;;;;;;18.25;16.60;;;26.40;92.60;;;;;;5069116;28;20041;-67
2021/07/27 12:45:50;;;;;;;18.15;16.48;;;26.30;93.20;;;;;;5066046;28;20032;-68
2021/07/27 12:48:16;;;;;;;18.00;16.30;;;26.20;93.40;;;;;;5057186;28;20126;-67
2021/07/27 12:50:42;;;;;;;17.02;15.55;;;26.10;94.10;;;;;;5059445;28;20064;-67
2021/07/27 12:53:07;;;;;;;18.65;17.05;;;26.20;93.80;;;;;;5068820;28;20684;-67
2021/07/27 12:55:33;;;;;;;18.45;16.75;;;26.30;92.60;;;;;;5070532;28;20933;-68
2021/07/27 12:58:03;;;;;;;18.50;16.70;;;26.50;93.30;;;;;;5072800;28;20035;-67
2021/07/27 13:00:30;;;;;;;16.98;15.18;;;26.50;91.90;;;;;;5073932;28;20489;-68
2021/07/27 13:02:55;;;;;;;17.73;15.90;;;26.70;93.50;;;;;;5072112;28;20064;-68